createdAt,value
2022-08-22T00:01:06.100Z,2.13
2022-08-22T00:02:55.135Z,2.50
2022-08-22T00:03:09.593Z,2.88
2022-08-22T00:03:35.464Z,4.10
2022-08-22T00:06:27.790Z,2.25
2022-08-22T00:08:56.962Z,3.10
2022-08-22T00:11:45.550Z,2.25
2022-08-22T00:14:15.151Z,1.63
2022-08-22T00:16:41.662Z,1.55
2022-08-22T00:19:36.888Z,2.30
2022-08-22T00:22:31.874Z,1.80
2022-08-22T00:25:26.335Z,1.73
2022-08-22T00:28:15.472Z,1.90
2022-08-22T00:31:06.965Z,2.28
2022-08-22T00:33:51.332Z,3.53
2022-08-22T00:39:03.249Z,2.42
2022-08-22T00:42:14.334Z,1.83
2022-08-22T00:45:16.361Z,2.00
2022-08-22T00:48:26.520Z,2.42
2022-08-22T00:51:24.060Z,3.10
2022-08-22T00:54:10.083Z,3.33
2022-08-22T00:56:50.314Z,2.67
2022-08-22T00:59:33.734Z,3.78
2022-08-22T01:02:18.742Z,2.63
2022-08-22T01:04:57.146Z,2.47
2022-08-22T01:08:01.247Z,2.05
2022-08-22T01:10:46.242Z,4.10
2022-08-22T01:13:45.107Z,2.50
2022-08-22T01:16:49.330Z,2.20
2022-08-22T01:19:34.163Z,2.23
2022-08-22T01:22:09.437Z,3.53
2022-08-22T01:25:04.901Z,3.22
2022-08-22T01:27:53.352Z,3.95
2022-08-22T01:30:39.445Z,2.72
2022-08-22T01:33:24.567Z,2.95
2022-08-22T01:36:14.130Z,3.22
2022-08-22T01:38:52.604Z,3.15
2022-08-22T01:41:52.058Z,3.60
2022-08-22T01:44:56.250Z,3.65
2022-08-22T01:47:56.719Z,2.85
2022-08-22T01:50:50.691Z,2.45
2022-08-22T01:53:28.150Z,1.70
2022-08-22T01:56:04.391Z,3.03
2022-08-22T01:58:35.033Z,3.97
2022-08-22T02:01:30.912Z,4.07
2022-08-22T02:04:09.962Z,2.63
2022-08-22T02:06:59.829Z,2.85
2022-08-22T02:09:33.455Z,2.17
2022-08-22T02:12:37.076Z,3.55
2022-08-22T02:15:15.779Z,2.42
2022-08-22T02:18:01.318Z,2.58
2022-08-22T02:20:52.740Z,2.75
2022-08-22T02:23:30.075Z,2.78
2022-08-22T02:26:09.598Z,3.08
2022-08-22T02:28:56.754Z,2.85
2022-08-22T02:31:36.176Z,3.05
2022-08-22T02:34:23.142Z,1.90
2022-08-22T02:37:32.802Z,3.30
2022-08-22T02:40:12.187Z,2.92
2022-08-22T02:42:48.848Z,2.47
2022-08-22T02:45:24.789Z,2.10
2022-08-22T02:48:05.411Z,1.40
2022-08-22T02:50:43.893Z,2.35
2022-08-22T02:53:36.455Z,1.70
2022-08-22T02:56:10.141Z,3.22
2022-08-22T02:58:53.482Z,2.55
2022-08-22T03:01:29.733Z,3.53
2022-08-22T03:04:27.086Z,3.17
2022-08-22T03:07:03.243Z,4.32
2022-08-22T03:09:37.858Z,2.40
2022-08-22T03:12:21.626Z,3.13
2022-08-22T03:15:02.950Z,2.70
2022-08-22T03:17:39.191Z,2.97
2022-08-22T03:20:12.824Z,4.57
2022-08-22T03:22:48.253Z,2.63
2022-08-22T03:25:37.460Z,5.05
2022-08-22T03:28:28.181Z,3.55
2022-08-22T03:31:14.761Z,3.50
2022-08-22T03:33:41.994Z,5.05
2022-08-22T03:36:14.279Z,2.83
2022-08-22T03:39:02.525Z,2.50
2022-08-22T03:41:39.724Z,3.33
2022-08-22T03:44:10.905Z,2.65
2022-08-22T03:47:04.934Z,2.95
2022-08-22T03:49:59.656Z,3.20
2022-08-22T03:53:18.606Z,3.55
2022-08-22T03:55:51.291Z,3.72
2022-08-22T03:58:54.956Z,4.18
2022-08-22T04:01:43.000Z,2.67
2022-08-22T04:04:33.815Z,2.50
2022-08-22T04:07:28.320Z,2.85
2022-08-22T04:10:26.548Z,2.97
2022-08-22T04:13:15.397Z,2.88
2022-08-22T04:15:41.876Z,2.25
2022-08-22T04:18:50.461Z,3.17
2022-08-22T04:21:42.285Z,2.40
2022-08-22T04:24:27.473Z,4.07
2022-08-22T04:27:10.621Z,2.60
2022-08-22T04:29:50.253Z,2.60
2022-08-22T04:32:36.001Z,3.55
2022-08-22T04:35:31.496Z,3.97
2022-08-22T04:38:28.181Z,3.38
2022-08-22T04:41:11.612Z,2.95
2022-08-22T04:43:38.111Z,3.50
2022-08-22T04:46:37.087Z,3.58
2022-08-22T04:49:41.618Z,2.83
2022-08-22T04:52:20.503Z,3.20
2022-08-22T04:55:24.551Z,5.07
2022-08-22T04:58:01.903Z,4.00
2022-08-22T05:00:41.785Z,3.22
2022-08-22T05:03:14.493Z,6.18
2022-08-22T05:05:44.306Z,3.13
2022-08-22T05:08:15.557Z,3.78
2022-08-22T05:10:47.063Z,5.18
2022-08-22T05:13:21.710Z,3.10
2022-08-22T05:15:52.169Z,2.88
2022-08-22T05:18:32.964Z,3.63
2022-08-22T05:21:03.186Z,2.72
2022-08-22T05:23:37.360Z,5.47
2022-08-22T05:26:06.231Z,2.17
2022-08-22T05:28:45.629Z,2.83
2022-08-22T05:31:25.499Z,3.28
2022-08-22T05:33:58.135Z,3.65
2022-08-22T05:36:28.806Z,2.38
2022-08-22T05:39:02.844Z,3.20
2022-08-22T05:41:35.371Z,2.83
2022-08-22T05:44:02.194Z,1.90
2022-08-22T05:46:42.813Z,3.13
2022-08-22T05:49:32.343Z,3.42
2022-08-22T05:52:35.956Z,2.63
2022-08-22T05:55:25.093Z,2.75
2022-08-22T05:58:19.513Z,2.70
2022-08-22T06:03:22.802Z,2.20
2022-08-22T06:05:53.064Z,3.83
2022-08-22T06:08:31.023Z,3.50
2022-08-22T06:11:04.004Z,2.70
2022-08-22T06:13:43.966Z,2.25
2022-08-22T06:16:22.860Z,2.65
2022-08-22T06:18:51.546Z,5.03
2022-08-22T06:21:27.158Z,2.97
2022-08-22T06:24:00.072Z,3.75
2022-08-22T06:26:31.492Z,2.43
2022-08-22T06:29:00.445Z,2.80
2022-08-22T06:31:34.925Z,2.10
2022-08-22T06:34:10.266Z,4.53
2022-08-22T06:36:41.079Z,3.42
2022-08-22T06:39:10.676Z,2.42
2022-08-22T06:41:46.794Z,2.95
2022-08-22T06:44:17.847Z,4.85
2022-08-22T06:46:46.353Z,2.83
2022-08-22T06:49:13.846Z,3.60
2022-08-22T06:51:41.327Z,2.28
2022-08-22T06:54:16.556Z,4.45
2022-08-22T06:56:46.554Z,2.72
2022-08-22T06:59:17.449Z,3.63
2022-08-22T07:01:49.981Z,3.97
2022-08-22T07:04:17.242Z,4.15
2022-08-22T07:06:47.750Z,2.47
2022-08-22T07:09:22.869Z,3.05
2022-08-22T07:11:50.888Z,3.40
2022-08-22T07:14:26.017Z,3.53
2022-08-22T07:17:04.595Z,3.60
2022-08-22T07:19:40.423Z,3.35
2022-08-22T07:22:22.793Z,4.30
2022-08-22T07:25:03.212Z,5.45
2022-08-22T07:27:41.788Z,5.47
2022-08-22T07:30:13.095Z,8.57
2022-08-22T07:32:45.593Z,6.40
2022-08-22T07:35:37.272Z,7.10
2022-08-22T07:38:23.114Z,5.93
2022-08-22T07:41:19.704Z,4.22
2022-08-22T07:43:56.810Z,4.40
2022-08-22T07:46:29.077Z,4.97
2022-08-22T07:49:09.030Z,4.82
2022-08-22T07:51:46.275Z,3.13
2022-08-22T07:54:42.006Z,4.55
2022-08-22T07:57:30.355Z,7.75
2022-08-22T08:00:00.246Z,3.90
2022-08-22T08:02:28.129Z,3.58
2022-08-22T08:04:57.668Z,2.80
2022-08-22T08:07:27.347Z,3.67
2022-08-22T08:10:00.111Z,3.38
2022-08-22T08:12:33.588Z,2.20
2022-08-22T08:15:03.879Z,3.50
2022-08-22T08:17:34.007Z,3.55
2022-08-22T08:20:06.730Z,3.40
2022-08-22T08:22:34.127Z,4.82
2022-08-22T08:25:02.075Z,2.80
2022-08-22T08:27:31.666Z,4.82
2022-08-22T08:30:03.533Z,4.25
2022-08-22T08:32:34.582Z,3.15
2022-08-22T08:35:28.735Z,3.42
2022-08-22T08:41:07.721Z,2.58
2022-08-22T08:44:16.315Z,3.88
2022-08-22T08:46:57.028Z,2.65
2022-08-22T08:50:05.340Z,2.95
2022-08-22T08:52:43.826Z,3.10
2022-08-22T08:55:22.522Z,4.28
2022-08-22T09:01:02.828Z,2.38
2022-08-22T09:03:51.755Z,2.22
2022-08-22T09:07:09.554Z,3.42
2022-08-22T09:10:20.618Z,1.85
2022-08-22T09:13:23.936Z,2.63
2022-08-22T09:16:04.260Z,2.72
2022-08-22T09:18:43.720Z,1.77
2022-08-22T09:21:45.501Z,3.35
2022-08-22T09:24:50.403Z,3.58
2022-08-22T09:27:46.153Z,2.58
2022-08-22T09:30:18.199Z,3.85
2022-08-22T09:32:57.336Z,4.88
2022-08-22T09:35:26.958Z,2.50
2022-08-22T09:37:53.876Z,3.15
2022-08-22T09:40:48.379Z,1.45
2022-08-22T09:43:26.818Z,3.95
2022-08-22T09:45:57.655Z,1.63
2022-08-22T09:49:05.553Z,2.13
2022-08-22T09:51:39.470Z,2.08
2022-08-22T09:54:15.091Z,2.00
2022-08-22T09:56:59.659Z,2.13
2022-08-22T09:59:51.783Z,3.65
2022-08-22T10:02:33.313Z,2.95
2022-08-22T10:05:35.281Z,2.58
2022-08-22T10:08:36.741Z,4.18
2022-08-22T10:11:17.900Z,2.03
2022-08-22T10:14:12.847Z,2.90
2022-08-22T10:17:07.320Z,2.88
2022-08-22T10:19:45.722Z,2.25
2022-08-22T10:22:18.159Z,2.85
2022-08-22T10:25:06.665Z,3.03
2022-08-22T10:28:01.492Z,1.52
2022-08-22T10:30:36.450Z,1.40
2022-08-22T10:33:24.573Z,2.08
2022-08-22T10:36:12.690Z,1.70
2022-08-22T10:38:53.220Z,2.70
2022-08-22T10:41:37.667Z,1.95
2022-08-22T10:47:01.026Z,1.30
2022-08-22T10:49:39.585Z,1.83
2022-08-22T10:52:15.698Z,1.30
2022-08-22T10:55:10.115Z,1.95
2022-08-22T10:57:55.507Z,2.08
2022-08-22T11:00:46.004Z,1.85
2022-08-22T11:03:37.215Z,1.67
2022-08-22T11:06:12.758Z,1.40
2022-08-22T11:09:24.023Z,1.00
2022-08-22T11:12:08.183Z,2.55
2022-08-22T11:14:37.800Z,2.03
2022-08-22T11:17:27.348Z,0.50
2022-08-22T11:20:11.410Z,1.08
2022-08-22T11:22:51.468Z,0.68
2022-08-22T11:25:43.951Z,1.13
2022-08-22T11:28:16.186Z,0.52
2022-08-22T11:30:53.758Z,0.47
2022-08-22T11:33:32.506Z,0.98
2022-08-22T11:36:18.630Z,1.73
2022-08-22T11:39:06.742Z,1.00
2022-08-22T11:42:03.185Z,1.55
2022-08-22T11:44:34.563Z,1.35
2022-08-22T11:47:10.613Z,0.93
2022-08-22T11:49:51.797Z,0.55
2022-08-22T11:52:51.901Z,1.40
2022-08-22T11:55:40.278Z,1.10
2022-08-22T11:58:14.682Z,1.35
2022-08-22T12:01:04.719Z,2.30
2022-08-22T12:03:58.065Z,1.10
2022-08-22T12:06:46.844Z,1.33
2022-08-22T12:09:20.931Z,2.28
2022-08-22T12:12:11.353Z,0.77
2022-08-22T12:15:08.918Z,1.63
2022-08-22T12:17:55.741Z,2.00
2022-08-22T12:20:49.970Z,1.45
2022-08-22T12:24:06.305Z,0.73
2022-08-22T12:27:02.617Z,0.75
2022-08-22T12:29:44.671Z,0.80
2022-08-22T12:32:45.703Z,0.60
2022-08-22T12:35:30.502Z,1.67
2022-08-22T12:38:29.228Z,0.95
2022-08-22T12:41:27.734Z,0.65
2022-08-22T12:44:18.059Z,0.80
2022-08-22T12:47:32.114Z,0.98
2022-08-22T12:50:11.060Z,1.25
2022-08-22T12:53:08.995Z,1.05
2022-08-22T12:55:57.004Z,1.08
2022-08-22T12:58:29.439Z,0.70
2022-08-22T13:01:06.271Z,0.98
2022-08-22T13:03:44.876Z,0.57
2022-08-22T13:06:33.442Z,0.65
2022-08-22T13:09:01.356Z,1.20
2022-08-22T13:11:29.569Z,1.02
2022-08-22T13:13:59.039Z,2.53
2022-08-22T13:16:36.527Z,1.33
2022-08-22T13:19:13.585Z,1.67
2022-08-22T13:21:48.323Z,0.85
2022-08-22T13:24:22.853Z,1.25
2022-08-22T13:27:15.602Z,1.35
2022-08-22T13:29:49.394Z,1.25
2022-08-22T13:32:32.485Z,1.10
2022-08-22T13:34:59.992Z,1.02
2022-08-22T13:37:50.046Z,1.00
2022-08-22T13:40:31.701Z,1.45
2022-08-22T13:43:22.802Z,2.67
2022-08-22T13:46:01.905Z,0.85
2022-08-22T13:49:00.779Z,1.15
2022-08-22T13:51:51.219Z,0.90
2022-08-22T13:54:40.052Z,0.85
2022-08-22T13:57:18.142Z,0.85
2022-08-22T14:00:01.609Z,1.00
2022-08-22T14:02:50.604Z,0.70
2022-08-22T14:05:42.789Z,0.93
2022-08-22T14:08:18.520Z,0.80
2022-08-22T14:11:02.003Z,0.52
2022-08-22T14:13:39.489Z,1.35
2022-08-22T14:16:27.820Z,1.00
2022-08-22T14:19:06.974Z,2.92
2022-08-22T14:21:40.715Z,0.77
2022-08-22T14:24:25.762Z,0.85
2022-08-22T14:27:05.284Z,0.90
2022-08-22T14:29:44.342Z,2.05
2022-08-22T14:32:35.379Z,1.20
2022-08-22T14:35:34.822Z,1.42
2022-08-22T14:38:27.235Z,1.48
2022-08-22T14:41:03.390Z,0.70
2022-08-22T14:43:29.985Z,0.75
2022-08-22T14:46:02.184Z,3.13
2022-08-22T14:48:50.819Z,1.15
2022-08-22T14:51:25.364Z,1.08
2022-08-22T14:53:52.845Z,1.98
2022-08-22T14:56:27.817Z,1.50
2022-08-22T14:58:57.859Z,1.15
2022-08-22T15:01:27.028Z,0.77
2022-08-22T15:04:05.695Z,1.52
2022-08-22T15:06:34.570Z,1.20
2022-08-22T15:09:08.146Z,2.75
2022-08-22T15:11:36.542Z,1.23
2022-08-22T15:14:03.217Z,1.75
2022-08-22T15:16:36.811Z,1.10
2022-08-22T15:19:33.366Z,0.80
2022-08-22T15:22:27.622Z,2.05
2022-08-22T15:25:12.964Z,1.83
2022-08-22T15:27:48.749Z,1.02
2022-08-22T15:30:20.711Z,0.90
2022-08-22T15:32:48.256Z,0.88
2022-08-22T15:35:29.986Z,0.50
2022-08-22T15:38:27.750Z,0.90
2022-08-22T15:40:56.139Z,1.00
2022-08-22T15:43:35.205Z,1.60
2022-08-22T15:46:22.714Z,1.15
2022-08-22T15:49:19.547Z,0.88
2022-08-22T15:51:50.337Z,0.70
2022-08-22T15:54:46.820Z,1.30
2022-08-22T15:57:25.779Z,1.13
2022-08-22T15:59:58.667Z,0.98
2022-08-22T16:02:42.591Z,0.68
2022-08-22T16:05:09.085Z,1.05
2022-08-22T16:08:14.429Z,0.98
2022-08-22T16:11:19.170Z,0.80
2022-08-22T16:13:45.867Z,0.80
2022-08-22T16:16:49.836Z,0.52
2022-08-22T16:19:21.363Z,1.10
2022-08-22T16:21:47.842Z,1.20
2022-08-22T16:24:14.283Z,0.50
2022-08-22T16:26:42.612Z,0.70
2022-08-22T16:29:17.863Z,1.67
2022-08-22T16:31:44.642Z,0.90
2022-08-22T16:34:17.273Z,1.40
2022-08-22T16:36:49.598Z,0.73
2022-08-22T16:39:22.069Z,0.90
2022-08-22T16:42:14.056Z,0.70
2022-08-22T16:44:46.659Z,0.80
2022-08-22T16:47:21.359Z,0.77
2022-08-22T16:49:50.636Z,0.98
2022-08-22T16:52:26.216Z,0.75
2022-08-22T16:54:58.616Z,2.45
2022-08-22T16:58:05.267Z,0.65
2022-08-22T17:01:00.897Z,1.42
2022-08-22T17:03:30.462Z,2.53
2022-08-22T17:06:14.927Z,2.67
2022-08-22T17:09:03.047Z,2.25
2022-08-22T17:11:47.847Z,1.08
2022-08-22T17:14:32.506Z,1.85
2022-08-22T17:17:02.677Z,1.85
2022-08-22T17:19:51.117Z,0.85
2022-08-22T17:23:00.660Z,1.85
2022-08-22T17:25:36.030Z,2.05
2022-08-22T17:28:25.179Z,2.15
2022-08-22T17:31:01.475Z,6.55
2022-08-22T17:33:30.989Z,2.60
2022-08-22T17:36:13.275Z,3.05
2022-08-22T17:39:06.609Z,1.65
2022-08-22T17:41:44.957Z,3.03
2022-08-22T17:44:27.780Z,4.78
2022-08-22T17:47:06.107Z,3.88
2022-08-22T17:49:41.836Z,3.40
2022-08-22T17:52:16.650Z,3.05
2022-08-22T17:55:06.281Z,2.92
2022-08-22T17:57:44.003Z,3.15
2022-08-22T18:00:29.542Z,2.08
2022-08-22T18:03:22.063Z,2.38
2022-08-22T18:05:53.914Z,2.88
2022-08-22T18:11:40.263Z,2.10
2022-08-22T18:14:20.092Z,2.25
2022-08-22T18:16:50.523Z,2.33
2022-08-22T18:19:32.566Z,2.00
2022-08-22T18:22:07.475Z,2.75
2022-08-22T18:24:50.233Z,2.25
2022-08-22T18:27:35.338Z,4.65
2022-08-22T18:30:07.489Z,5.32
2022-08-22T18:32:58.930Z,3.22
2022-08-22T18:35:53.970Z,1.67
2022-08-22T18:38:24.043Z,1.75
2022-08-22T18:41:31.826Z,3.28
2022-08-22T18:43:59.618Z,2.63
2022-08-22T18:46:38.107Z,1.48
2022-08-22T18:49:24.823Z,2.33
2022-08-22T18:52:31.639Z,1.95
2022-08-22T18:55:17.308Z,2.65
2022-08-22T18:58:21.468Z,2.45
2022-08-22T19:00:50.904Z,2.08
2022-08-22T19:03:35.596Z,1.88
2022-08-22T19:06:07.839Z,3.38
2022-08-22T19:08:37.076Z,2.28
2022-08-22T19:11:06.336Z,3.88
2022-08-22T19:13:41.631Z,2.20
2022-08-22T19:16:27.082Z,3.83
2022-08-22T19:19:44.378Z,2.03
2022-08-22T19:22:13.654Z,2.47
2022-08-22T19:25:02.338Z,2.50
2022-08-22T19:27:32.267Z,4.20
2022-08-22T19:30:05.679Z,2.08
2022-08-22T19:32:44.187Z,2.42
2022-08-22T19:35:50.254Z,3.63
2022-08-22T19:38:51.971Z,2.63
2022-08-22T19:41:36.813Z,1.83
2022-08-22T19:44:04.083Z,2.85
2022-08-22T19:46:40.142Z,1.63
2022-08-22T19:49:31.142Z,2.28
2022-08-22T19:52:16.027Z,2.83
2022-08-22T19:54:47.670Z,2.58
2022-08-22T19:58:06.619Z,1.85
2022-08-22T20:00:42.350Z,3.63
2022-08-22T20:03:50.786Z,2.25
2022-08-22T20:06:40.677Z,3.58
2022-08-22T20:09:19.192Z,2.53
2022-08-22T20:12:03.946Z,3.13
2022-08-22T20:14:42.505Z,2.40
2022-08-22T20:17:24.193Z,2.25
2022-08-22T20:22:48.508Z,6.55
2022-08-22T20:25:42.900Z,2.03
2022-08-22T20:28:24.166Z,3.80
2022-08-22T20:30:57.856Z,3.55
2022-08-22T20:33:29.024Z,2.17
2022-08-22T20:35:59.214Z,3.67
2022-08-22T20:38:36.366Z,2.22
2022-08-22T20:41:22.351Z,3.35
2022-08-22T20:43:54.036Z,3.50
2022-08-22T20:46:30.869Z,3.92
2022-08-22T20:49:01.036Z,3.58
2022-08-22T20:51:30.856Z,3.22
2022-08-22T20:54:02.136Z,3.40
2022-08-22T20:56:48.737Z,3.10
2022-08-22T20:59:36.819Z,2.72
2022-08-22T21:02:09.122Z,3.57
2022-08-22T21:05:00.904Z,2.33
2022-08-22T21:07:32.292Z,3.15
2022-08-22T21:10:03.650Z,5.45
2022-08-22T21:12:30.272Z,2.47
2022-08-22T21:14:56.833Z,2.55
2022-08-22T21:17:34.229Z,3.60
2022-08-22T21:20:30.407Z,3.00
2022-08-22T21:23:02.071Z,2.65
2022-08-22T21:25:29.306Z,3.03
2022-08-22T21:27:55.913Z,3.83
2022-08-22T21:30:25.255Z,2.15
2022-08-22T21:32:56.020Z,3.97
2022-08-22T21:35:26.136Z,3.90
2022-08-22T21:37:53.152Z,2.50
2022-08-22T21:40:24.950Z,4.10
2022-08-22T21:43:05.256Z,3.13
2022-08-22T21:45:35.668Z,3.22
2022-08-22T21:48:02.502Z,2.63
2022-08-22T21:50:32.815Z,1.98
2022-08-22T21:53:16.656Z,2.03
2022-08-22T21:55:44.491Z,3.47
2022-08-22T21:58:36.046Z,3.72
2022-08-22T22:01:30.578Z,4.57
2022-08-22T22:03:58.752Z,4.13
2022-08-22T22:06:26.111Z,2.63
2022-08-22T22:08:52.626Z,4.82
2022-08-22T22:11:19.229Z,2.30
2022-08-22T22:13:46.007Z,2.72
2022-08-22T22:16:13.380Z,3.08
2022-08-22T22:18:40.533Z,3.72
2022-08-22T22:21:07.907Z,3.60
2022-08-22T22:23:34.484Z,3.60
2022-08-22T22:26:03.714Z,5.55
2022-08-22T22:28:40.430Z,5.35
2022-08-22T22:31:07.746Z,3.30
2022-08-22T22:33:38.378Z,3.15
2022-08-22T22:36:17.881Z,1.67
2022-08-22T22:38:44.626Z,2.75
2022-08-22T22:41:11.827Z,2.90
2022-08-22T22:43:38.716Z,2.38
2022-08-22T22:46:05.256Z,3.05
2022-08-22T22:48:32.650Z,2.85
2022-08-22T22:50:59.349Z,2.95
2022-08-22T22:53:37.954Z,2.88
2022-08-22T22:56:10.238Z,4.13
2022-08-22T22:58:40.439Z,3.58
2022-08-22T23:01:27.243Z,2.20
2022-08-22T23:03:56.280Z,2.40
2022-08-22T23:06:25.082Z,2.45
2022-08-22T23:08:52.813Z,2.20
2022-08-22T23:11:22.472Z,1.77
2022-08-22T23:13:49.614Z,3.00
2022-08-22T23:16:22.849Z,2.17
2022-08-22T23:18:50.836Z,3.03
2022-08-22T23:21:24.135Z,3.00
2022-08-22T23:23:50.982Z,3.03
2022-08-22T23:26:17.561Z,1.90
2022-08-22T23:28:44.257Z,1.92
2022-08-22T23:31:13.963Z,3.03
2022-08-22T23:33:40.800Z,3.05
2022-08-22T23:36:19.652Z,1.88
2022-08-22T23:38:47.164Z,2.10
2022-08-22T23:41:15.951Z,1.58
2022-08-22T23:43:44.927Z,5.40
2022-08-22T23:46:12.513Z,2.63
2022-08-22T23:48:39.107Z,2.90
2022-08-22T23:51:06.082Z,2.75
2022-08-22T23:53:33.760Z,1.83
2022-08-22T23:56:19.591Z,3.50
2022-08-22T23:58:48.956Z,3.00
